createdAt,value
2018-06-19T00:02:14.528Z,3.33
2018-06-19T00:04:42.898Z,4.30
2018-06-19T00:07:11.297Z,3.83
2018-06-19T00:09:39.708Z,4.00
2018-06-19T00:12:08.139Z,4.57
2018-06-19T00:14:36.527Z,3.83
2018-06-19T00:17:04.951Z,4.00
2018-06-19T00:19:33.851Z,3.80
2018-06-19T00:22:02.868Z,3.47
2018-06-19T00:24:31.268Z,3.80
2018-06-19T00:26:59.675Z,3.83
2018-06-19T00:29:28.007Z,3.30
2018-06-19T00:31:56.408Z,4.17
2018-06-19T00:34:24.775Z,3.67
2018-06-19T00:36:53.114Z,3.97
2018-06-19T00:39:21.447Z,4.10
2018-06-19T00:41:49.784Z,4.20
2018-06-19T00:44:18.204Z,4.53
2018-06-19T00:46:49.015Z,4.37
2018-06-19T00:49:17.436Z,4.23
2018-06-19T00:51:45.792Z,3.90
2018-06-19T00:54:14.256Z,3.70
2018-06-19T00:56:52.151Z,4.20
2018-06-19T00:59:20.524Z,4.20
2018-06-19T01:01:48.948Z,4.30
2018-06-19T01:04:17.414Z,4.17
2018-06-19T01:06:45.929Z,4.60
2018-06-19T01:09:14.448Z,4.00
2018-06-19T01:11:42.875Z,3.97
2018-06-19T01:14:11.255Z,3.73
2018-06-19T01:16:39.601Z,4.53
2018-06-19T01:19:08.003Z,4.03
2018-06-19T01:21:36.447Z,4.50
2018-06-19T01:24:04.855Z,3.83
2018-06-19T01:26:33.223Z,4.77
2018-06-19T01:29:01.589Z,4.07
2018-06-19T01:31:29.984Z,4.40
2018-06-19T01:33:58.268Z,4.77
2018-06-19T01:36:26.659Z,4.33
2018-06-19T01:38:55.024Z,3.53
2018-06-19T01:41:23.385Z,3.33
2018-06-19T01:43:51.951Z,3.87
2018-06-19T01:46:20.401Z,3.40
2018-06-19T01:48:48.828Z,3.67
2018-06-19T01:51:17.275Z,3.50
2018-06-19T01:53:45.688Z,3.17
2018-06-19T01:56:14.108Z,3.40
2018-06-19T01:58:42.536Z,3.63
2018-06-19T02:01:10.891Z,4.07
2018-06-19T02:03:39.328Z,3.10
2018-06-19T02:06:07.709Z,3.50
2018-06-19T02:08:36.094Z,3.23
2018-06-19T02:11:04.532Z,3.60
2018-06-19T02:13:32.898Z,3.57
2018-06-19T02:16:01.258Z,3.43
2018-06-19T02:18:29.564Z,3.47
2018-06-19T02:20:57.942Z,4.00
2018-06-19T02:23:26.336Z,4.37
2018-06-19T02:25:54.697Z,4.10
2018-06-19T02:28:23.108Z,4.43
2018-06-19T02:30:51.432Z,3.37
2018-06-19T02:33:19.783Z,3.87
2018-06-19T02:35:48.165Z,4.20
2018-06-19T02:38:16.772Z,4.20
2018-06-19T02:40:45.161Z,4.73
2018-06-19T02:43:13.852Z,4.43
2018-06-19T02:45:42.175Z,3.20
2018-06-19T02:48:10.589Z,4.40
2018-06-19T02:50:38.935Z,3.97
2018-06-19T02:53:07.427Z,4.30
2018-06-19T02:55:35.831Z,4.27
2018-06-19T02:58:04.199Z,4.03
2018-06-19T03:00:32.594Z,4.47
2018-06-19T03:03:00.943Z,3.90
2018-06-19T03:05:29.319Z,4.03
2018-06-19T03:07:57.751Z,4.10
2018-06-19T03:10:26.127Z,4.20
2018-06-19T03:12:54.495Z,4.23
2018-06-19T03:15:22.841Z,4.17
2018-06-19T03:17:51.256Z,4.57
2018-06-19T03:20:19.659Z,3.77
2018-06-19T03:22:48.055Z,4.00
2018-06-19T03:25:16.386Z,4.13
2018-06-19T03:27:44.787Z,3.80
2018-06-19T03:30:13.148Z,4.10
2018-06-19T03:32:41.551Z,3.67
2018-06-19T03:35:09.929Z,3.77
2018-06-19T03:37:38.236Z,3.93
2018-06-19T03:40:06.556Z,4.00
2018-06-19T03:42:34.920Z,3.60
2018-06-19T03:45:03.321Z,3.77
2018-06-19T03:47:31.687Z,3.47
2018-06-19T03:50:00.035Z,3.73
2018-06-19T03:52:28.441Z,4.13
2018-06-19T03:54:56.825Z,3.83
2018-06-19T03:57:25.228Z,3.53
2018-06-19T03:59:53.683Z,3.47
2018-06-19T04:02:22.091Z,3.47
2018-06-19T04:04:50.495Z,3.70
2018-06-19T04:07:18.864Z,3.80
2018-06-19T04:09:47.250Z,4.13
2018-06-19T04:12:15.628Z,3.60
2018-06-19T04:14:44.011Z,3.83
2018-06-19T04:17:23.719Z,3.83
2018-06-19T04:19:52.139Z,4.03
2018-06-19T04:22:20.607Z,3.80
2018-06-19T04:24:49.039Z,4.17
2018-06-19T04:27:17.392Z,3.33
2018-06-19T04:29:45.764Z,3.70
2018-06-19T04:32:14.299Z,3.40
2018-06-19T04:34:42.608Z,3.43
2018-06-19T04:37:10.976Z,3.53
2018-06-19T04:39:40.163Z,3.90
2018-06-19T04:42:08.545Z,4.00
2018-06-19T04:44:36.896Z,3.97
2018-06-19T04:47:05.262Z,3.87
2018-06-19T04:49:33.604Z,3.80
2018-06-19T04:52:02.012Z,4.17
2018-06-19T04:54:30.515Z,4.30
2018-06-19T04:56:58.932Z,4.23
2018-06-19T04:59:27.337Z,3.77
2018-06-19T05:01:55.713Z,4.07
2018-06-19T05:04:24.097Z,3.80
2018-06-19T05:06:52.444Z,4.23
2018-06-19T05:09:20.850Z,4.03
2018-06-19T05:11:49.221Z,4.30
2018-06-19T05:14:17.603Z,4.83
2018-06-19T05:16:45.911Z,4.10
2018-06-19T05:19:14.316Z,4.00
2018-06-19T05:21:42.684Z,3.70
2018-06-19T05:24:11.032Z,4.10
2018-06-19T05:26:39.463Z,4.43
2018-06-19T05:29:07.510Z,4.63
2018-06-19T05:31:35.854Z,4.33
2018-06-19T05:34:04.306Z,3.93
2018-06-19T05:36:32.693Z,4.10
2018-06-19T05:39:01.016Z,4.40
2018-06-19T05:41:29.355Z,4.03
2018-06-19T05:43:57.700Z,4.50
2018-06-19T05:46:26.170Z,4.83
2018-06-19T05:48:54.499Z,3.73
2018-06-19T05:51:22.978Z,5.13
2018-06-19T05:53:51.329Z,4.70
2018-06-19T05:56:19.626Z,4.30
2018-06-19T05:58:48.015Z,4.50
2018-06-19T06:01:16.386Z,4.80
2018-06-19T06:03:44.827Z,4.47
2018-06-19T06:06:13.246Z,4.50
2018-06-19T06:08:41.631Z,4.17
2018-06-19T06:11:10.102Z,5.47
2018-06-19T06:13:38.432Z,5.03
2018-06-19T06:16:06.954Z,6.53
2018-06-19T06:18:35.487Z,5.57
2018-06-19T06:21:03.860Z,4.37
2018-06-19T06:23:32.297Z,4.27
2018-06-19T06:26:00.692Z,4.27
2018-06-19T06:28:29.155Z,4.83
2018-06-19T06:30:57.542Z,5.10
2018-06-19T06:33:25.927Z,4.30
2018-06-19T06:35:54.364Z,4.93
2018-06-19T06:38:22.721Z,3.87
2018-06-19T06:40:51.075Z,3.80
2018-06-19T06:43:19.471Z,4.10
2018-06-19T06:45:47.950Z,4.00
2018-06-19T06:48:16.341Z,4.63
2018-06-19T06:50:44.743Z,4.87
2018-06-19T06:53:13.419Z,4.80
2018-06-19T06:55:41.801Z,4.83
2018-06-19T06:58:10.151Z,4.93
2018-06-19T07:00:38.680Z,3.60
2018-06-19T07:03:07.075Z,4.77
2018-06-19T07:05:36.525Z,4.00
2018-06-19T07:08:05.090Z,5.47
2018-06-19T07:10:33.552Z,4.67
2018-06-19T07:13:01.924Z,4.93
2018-06-19T07:15:30.410Z,4.90
2018-06-19T07:17:58.764Z,4.17
2018-06-19T07:20:27.708Z,4.20
2018-06-19T07:22:56.054Z,4.23
2018-06-19T07:25:24.451Z,4.43
2018-06-19T07:27:56.109Z,4.97
2018-06-19T07:30:24.446Z,4.70
2018-06-19T07:32:52.815Z,4.77
2018-06-19T07:35:21.363Z,5.90
2018-06-19T07:37:49.852Z,4.93
2018-06-19T07:40:18.272Z,6.30
2018-06-19T07:42:46.828Z,4.90
2018-06-19T07:45:15.267Z,4.87
2018-06-19T07:47:43.732Z,4.93
2018-06-19T07:50:12.114Z,5.67
2018-06-19T07:52:40.648Z,5.90
2018-06-19T07:55:09.051Z,6.30
2018-06-19T07:57:37.466Z,6.23
2018-06-19T08:00:06.019Z,5.60
2018-06-19T08:02:34.483Z,5.23
2018-06-19T08:05:02.863Z,5.40
2018-06-19T08:07:31.245Z,5.90
2018-06-19T08:09:59.886Z,5.83
2018-06-19T08:12:28.338Z,6.57
2018-06-19T08:14:56.666Z,6.90
2018-06-19T08:17:25.033Z,6.07
2018-06-19T08:19:53.433Z,6.43
2018-06-19T08:22:21.829Z,5.97
2018-06-19T08:24:50.219Z,6.63
2018-06-19T08:27:18.831Z,6.50
2018-06-19T08:29:47.195Z,7.37
2018-06-19T08:32:15.498Z,7.10
2018-06-19T08:34:43.855Z,5.90
2018-06-19T08:37:12.220Z,8.17
2018-06-19T08:39:40.611Z,7.07
2018-06-19T08:42:08.992Z,6.80
2018-06-19T08:44:37.431Z,6.67
2018-06-19T08:47:06.065Z,6.57
2018-06-19T08:49:34.448Z,6.37
2018-06-19T08:52:02.869Z,6.27
2018-06-19T08:54:31.356Z,7.60
2018-06-19T08:56:59.751Z,6.70
2018-06-19T08:59:28.082Z,6.57
2018-06-19T09:01:56.478Z,7.10
2018-06-19T09:04:24.891Z,7.57
2018-06-19T09:06:53.533Z,7.73
2018-06-19T09:09:21.887Z,7.20
2018-06-19T09:11:50.230Z,6.63
2018-06-19T09:14:18.586Z,6.57
2018-06-19T09:16:46.917Z,6.83
2018-06-19T09:19:15.325Z,6.97
2018-06-19T09:21:43.759Z,7.00
2018-06-19T09:24:12.167Z,8.23
2018-06-19T09:26:40.744Z,8.50
2018-06-19T09:29:09.096Z,8.10
2018-06-19T09:31:37.445Z,8.07
2018-06-19T09:34:05.882Z,7.60
2018-06-19T09:36:34.277Z,9.73
2018-06-19T09:39:02.635Z,8.00
2018-06-19T09:41:30.979Z,8.50
2018-06-19T09:43:59.351Z,8.63
2018-06-19T09:46:27.752Z,8.63
2018-06-19T09:48:56.460Z,8.13
2018-06-19T09:51:24.869Z,8.63
2018-06-19T09:53:53.243Z,8.57
2018-06-19T09:56:21.684Z,7.20
2018-06-19T09:58:50.501Z,7.83
2018-06-19T10:01:18.835Z,9.30
2018-06-19T10:03:47.235Z,7.97
2018-06-19T10:06:15.648Z,9.60
2018-06-19T10:08:44.087Z,9.57
2018-06-19T10:11:12.605Z,8.47
2018-06-19T10:13:41.009Z,9.10
2018-06-19T10:16:09.378Z,9.80
2018-06-19T10:18:37.831Z,9.40
2018-06-19T10:21:06.223Z,9.47
2018-06-19T10:23:34.610Z,8.47
2018-06-19T10:26:02.976Z,7.67
2018-06-19T10:28:31.338Z,8.40
2018-06-19T10:30:59.760Z,8.97
2018-06-19T10:33:28.196Z,7.90
2018-06-19T10:35:56.595Z,8.60
2018-06-19T10:38:24.943Z,7.43
2018-06-19T10:40:53.319Z,6.33
2018-06-19T10:43:21.700Z,7.63
2018-06-19T10:45:50.094Z,8.67
2018-06-19T10:48:18.562Z,7.57
2018-06-19T10:50:47.067Z,7.10
2018-06-19T10:53:15.454Z,7.87
2018-06-19T10:55:43.919Z,7.47
2018-06-19T10:58:12.250Z,6.97
2018-06-19T11:00:40.666Z,8.83
2018-06-19T11:03:09.059Z,8.57
2018-06-19T11:05:37.482Z,7.27
2018-06-19T11:08:05.927Z,7.53
2018-06-19T11:10:34.383Z,8.27
2018-06-19T11:13:02.714Z,7.07
2018-06-19T11:15:31.100Z,8.17
2018-06-19T11:17:59.519Z,8.07
2018-06-19T11:20:28.667Z,7.70
2018-06-19T11:22:57.046Z,8.93
2018-06-19T11:25:25.399Z,9.50
2018-06-19T11:27:53.795Z,10.90
2018-06-19T11:30:22.232Z,8.47
2018-06-19T11:32:50.667Z,8.83
2018-06-19T11:35:19.011Z,9.60
2018-06-19T11:37:47.424Z,8.20
2018-06-19T11:40:15.851Z,8.07
2018-06-19T11:42:44.561Z,7.10
2018-06-19T11:45:12.955Z,7.00
2018-06-19T11:47:41.402Z,7.07
2018-06-19T11:50:09.851Z,7.03
2018-06-19T11:52:38.259Z,7.47
2018-06-19T11:55:06.893Z,6.13
2018-06-19T11:57:35.263Z,7.73
2018-06-19T12:00:04.008Z,7.33
2018-06-19T12:02:32.496Z,7.63
2018-06-19T12:05:00.931Z,7.27
2018-06-19T12:07:34.607Z,7.87
2018-06-19T12:10:02.952Z,7.70
2018-06-19T12:12:31.367Z,7.60
2018-06-19T12:14:59.908Z,8.40
2018-06-19T12:17:28.321Z,6.93
2018-06-19T12:19:56.711Z,6.37
2018-06-19T12:22:25.167Z,6.60
2018-06-19T12:24:53.622Z,6.63
2018-06-19T12:27:22.084Z,6.53
2018-06-19T12:29:50.474Z,6.60
2018-06-19T12:32:18.883Z,6.63
2018-06-19T12:34:47.496Z,6.47
2018-06-19T12:37:15.870Z,6.60
2018-06-19T12:39:44.224Z,6.80
2018-06-19T12:42:12.655Z,6.50
2018-06-19T12:44:41.124Z,6.90
2018-06-19T12:47:09.551Z,6.53
2018-06-19T12:49:48.954Z,6.57
2018-06-19T12:52:28.533Z,6.63
2018-06-19T12:55:11.768Z,6.57
2018-06-19T12:57:40.163Z,5.73
2018-06-19T13:00:08.595Z,5.40
2018-06-19T13:02:37.088Z,5.67
2018-06-19T13:05:16.595Z,5.40
2018-06-19T13:07:51.311Z,5.80
2018-06-19T13:10:19.687Z,5.47
2018-06-19T13:13:25.600Z,5.83
2018-06-19T13:15:54.614Z,5.17
2018-06-19T13:18:35.445Z,5.63
2018-06-19T13:21:03.856Z,5.60
2018-06-19T13:23:32.629Z,5.17
2018-06-19T13:26:01.069Z,5.37
2018-06-19T13:28:41.161Z,4.83
2018-06-19T13:31:20.737Z,5.27
2018-06-19T13:33:49.071Z,4.77
2018-06-19T13:36:17.532Z,5.17
2018-06-19T13:38:45.953Z,4.77
2018-06-19T13:41:26.835Z,4.77
2018-06-19T13:44:11.204Z,4.93
2018-06-19T13:46:39.852Z,4.33
2018-06-19T13:49:09.056Z,5.20
2018-06-19T13:51:37.504Z,5.10
2018-06-19T13:54:06.010Z,5.10
2018-06-19T13:57:11.614Z,4.93
2018-06-19T13:59:40.494Z,5.87
2018-06-19T14:02:08.935Z,4.77
2018-06-19T14:04:37.376Z,5.03
2018-06-19T14:07:06.326Z,4.97
2018-06-19T14:09:47.084Z,4.70
2018-06-19T14:12:24.832Z,5.00
2018-06-19T14:14:55.311Z,5.40
2018-06-19T14:17:25.093Z,4.17
2018-06-19T14:19:54.727Z,4.83
2018-06-19T14:22:23.641Z,4.00
2018-06-19T14:24:52.063Z,5.50
2018-06-19T14:27:20.503Z,4.93
2018-06-19T14:29:48.921Z,4.87
2018-06-19T14:32:17.403Z,4.33
2018-06-19T14:34:45.799Z,3.87
2018-06-19T14:37:14.167Z,4.00
2018-06-19T14:39:42.550Z,3.70
2018-06-19T14:42:11.271Z,3.33
2018-06-19T14:44:39.679Z,3.20
2018-06-19T14:47:08.139Z,3.10
2018-06-19T14:49:36.539Z,3.30
2018-06-19T14:52:04.930Z,3.63
2018-06-19T14:54:33.324Z,3.93
2018-06-19T14:57:01.710Z,3.70
2018-06-19T14:59:30.034Z,3.67
2018-06-19T15:01:58.455Z,3.60
2018-06-19T15:04:26.831Z,3.33
2018-06-19T15:06:55.289Z,4.07
2018-06-19T15:09:23.693Z,3.40
2018-06-19T15:11:52.053Z,3.80
2018-06-19T15:14:20.525Z,2.83
2018-06-19T15:16:48.987Z,3.70
2018-06-19T15:19:17.418Z,3.40
2018-06-19T15:21:45.832Z,3.20
2018-06-19T15:24:14.280Z,3.80
2018-06-19T15:26:42.589Z,3.80
2018-06-19T15:29:11.047Z,3.80
2018-06-19T15:31:39.526Z,4.00
2018-06-19T15:34:07.957Z,4.20
2018-06-19T15:36:36.322Z,4.00
2018-06-19T15:39:07.917Z,4.13
2018-06-19T15:41:36.406Z,4.43
2018-06-19T15:44:05.146Z,4.30
2018-06-19T15:46:33.650Z,4.00
2018-06-19T15:49:02.575Z,4.20
2018-06-19T15:51:31.279Z,3.80
2018-06-19T15:53:59.799Z,4.37
2018-06-19T15:56:28.244Z,4.00
2018-06-19T15:58:56.644Z,3.77
2018-06-19T16:01:25.223Z,3.53
2018-06-19T16:03:53.725Z,4.10
2018-06-19T16:06:22.123Z,3.87
2018-06-19T16:08:50.579Z,3.70
2018-06-19T16:11:18.984Z,3.23
2018-06-19T16:13:47.424Z,4.00
2018-06-19T16:16:15.781Z,4.13
2018-06-19T16:18:44.221Z,4.27
2018-06-19T16:21:12.643Z,4.10
2018-06-19T16:23:41.347Z,3.80
2018-06-19T16:26:09.859Z,3.60
2018-06-19T16:28:38.257Z,3.63
2018-06-19T16:31:06.602Z,3.60
2018-06-19T16:33:34.993Z,3.60
2018-06-19T16:36:03.363Z,3.20
2018-06-19T16:38:31.799Z,3.60
2018-06-19T16:41:00.267Z,3.07
2018-06-19T16:43:28.618Z,3.90
2018-06-19T16:45:56.982Z,3.20
2018-06-19T16:48:25.366Z,3.53
2018-06-19T16:50:53.740Z,4.00
2018-06-19T16:53:22.733Z,3.47
2018-06-19T16:55:51.288Z,3.10
2018-06-19T16:58:19.740Z,3.63
2018-06-19T17:00:48.258Z,3.43
2018-06-19T17:03:16.623Z,3.30
2018-06-19T17:05:44.947Z,3.20
2018-06-19T17:08:13.373Z,3.30
2018-06-19T17:10:41.776Z,3.23
2018-06-19T17:13:10.300Z,2.90
2018-06-19T17:15:38.715Z,3.50
2018-06-19T17:18:07.101Z,3.00
2018-06-19T17:20:35.436Z,3.37
2018-06-19T17:23:03.955Z,3.37
2018-06-19T17:25:32.460Z,3.27
2018-06-19T17:28:00.879Z,3.10
2018-06-19T17:30:29.309Z,3.43
2018-06-19T17:32:57.639Z,2.90
2018-06-19T17:35:26.046Z,3.37
2018-06-19T17:37:54.414Z,3.17
2018-06-19T17:40:22.760Z,3.00
2018-06-19T17:42:51.100Z,2.87
2018-06-19T17:45:19.495Z,3.13
2018-06-19T17:47:48.316Z,2.90
2018-06-19T17:50:16.722Z,2.83
2018-06-19T17:52:45.152Z,3.30
2018-06-19T17:55:13.584Z,3.27
2018-06-19T17:57:42.000Z,2.77
2018-06-19T18:00:10.346Z,2.80
2018-06-19T18:02:38.754Z,3.23
2018-06-19T18:05:07.159Z,2.90
2018-06-19T18:07:35.620Z,3.10
2018-06-19T18:10:04.029Z,3.20
2018-06-19T18:12:32.427Z,3.17
2018-06-19T18:15:00.804Z,2.80
2018-06-19T18:17:29.199Z,2.80
2018-06-19T18:19:57.608Z,3.03
2018-06-19T18:22:26.092Z,3.00
2018-06-19T18:24:54.441Z,2.83
2018-06-19T18:27:22.809Z,3.80
2018-06-19T18:29:51.132Z,2.73
2018-06-19T18:32:19.510Z,2.67
2018-06-19T18:34:47.913Z,2.97
2018-06-19T18:37:16.327Z,2.80
2018-06-19T18:39:44.667Z,2.73
2018-06-19T18:42:13.027Z,2.93
2018-06-19T18:44:41.435Z,2.73
2018-06-19T18:47:09.800Z,2.90
2018-06-19T18:49:38.166Z,2.80
2018-06-19T18:52:06.680Z,3.27
2018-06-19T18:54:35.000Z,2.97
2018-06-19T18:57:03.384Z,2.83
2018-06-19T18:59:31.715Z,3.07
2018-06-19T19:02:00.035Z,3.20
2018-06-19T19:04:28.380Z,3.30
2018-06-19T19:06:56.809Z,3.10
2018-06-19T19:09:25.323Z,3.60
2018-06-19T19:11:53.804Z,3.50
2018-06-19T19:14:23.103Z,3.60
2018-06-19T19:16:56.804Z,3.20
2018-06-19T19:19:25.640Z,3.20
2018-06-19T19:21:54.617Z,3.50
2018-06-19T19:24:23.041Z,3.53
2018-06-19T19:26:56.836Z,3.53
2018-06-19T19:29:56.056Z,3.27
2018-06-19T19:32:24.439Z,3.60
2018-06-19T19:34:52.777Z,3.37
2018-06-19T19:37:26.522Z,3.97
2018-06-19T19:39:54.902Z,3.97
2018-06-19T19:42:23.346Z,3.70
2018-06-19T19:44:51.696Z,3.70
2018-06-19T19:47:25.395Z,3.90
2018-06-19T19:49:53.721Z,3.77
2018-06-19T19:52:22.094Z,3.70
2018-06-19T19:54:50.459Z,3.67
2018-06-19T19:57:24.294Z,3.90
2018-06-19T19:59:52.712Z,3.40
2018-06-19T20:02:21.115Z,3.40
2018-06-19T20:04:49.464Z,3.40
2018-06-19T20:07:17.908Z,3.53
2018-06-19T20:09:46.324Z,3.70
2018-06-19T20:12:14.715Z,3.80
2018-06-19T20:14:43.089Z,3.40
2018-06-19T20:17:11.456Z,3.97
2018-06-19T20:19:39.882Z,3.40
2018-06-19T20:22:08.527Z,3.70
2018-06-19T20:24:36.883Z,3.17
2018-06-19T20:27:05.335Z,3.80
2018-06-19T20:29:33.703Z,3.50
2018-06-19T20:32:02.150Z,3.37
2018-06-19T20:34:30.516Z,3.57
2018-06-19T20:36:58.959Z,3.13
2018-06-19T20:39:27.309Z,3.30
2018-06-19T20:41:55.620Z,3.73
2018-06-19T20:44:24.064Z,3.90
2018-06-19T20:46:52.460Z,3.87
2018-06-19T20:49:20.851Z,3.63
2018-06-19T20:51:49.228Z,3.57
2018-06-19T20:54:17.571Z,3.60
2018-06-19T20:56:45.948Z,3.43
2018-06-19T20:59:14.429Z,3.73
2018-06-19T21:01:42.861Z,3.70
2018-06-19T21:04:11.209Z,3.60
2018-06-19T21:06:39.565Z,3.50
2018-06-19T21:09:08.616Z,3.83
2018-06-19T21:11:37.157Z,3.03
2018-06-19T21:14:05.536Z,4.10
2018-06-19T21:16:33.930Z,3.87
2018-06-19T21:19:02.325Z,3.43
2018-06-19T21:21:30.807Z,3.13
2018-06-19T21:23:59.235Z,3.70
2018-06-19T21:26:27.639Z,3.40
2018-06-19T21:28:56.020Z,3.40
2018-06-19T21:31:24.665Z,4.07
2018-06-19T21:33:53.040Z,3.60
2018-06-19T21:36:21.395Z,3.23
2018-06-19T21:38:49.800Z,3.30
2018-06-19T21:41:18.161Z,3.60
2018-06-19T21:43:46.561Z,3.60
2018-06-19T21:46:14.971Z,3.40
2018-06-19T21:48:43.368Z,3.70
2018-06-19T21:51:11.788Z,3.80
2018-06-19T21:53:40.175Z,4.03
2018-06-19T21:56:08.571Z,3.53
2018-06-19T21:58:36.924Z,3.37
2018-06-19T22:01:05.338Z,3.90
2018-06-19T22:03:33.811Z,3.47
2018-06-19T22:06:02.156Z,3.87
2018-06-19T22:08:49.791Z,4.00
2018-06-19T22:11:18.179Z,3.57
2018-06-19T22:13:46.788Z,4.07
2018-06-19T22:16:15.188Z,4.60
2018-06-19T22:18:43.572Z,4.33
2018-06-19T22:21:12.032Z,4.40
2018-06-19T22:23:40.452Z,3.97
2018-06-19T22:26:08.891Z,3.90
2018-06-19T22:28:37.299Z,4.03
2018-06-19T22:31:05.687Z,3.90
2018-06-19T22:33:34.109Z,3.97
2018-06-19T22:36:02.415Z,4.33
2018-06-19T22:38:30.995Z,4.40
2018-06-19T22:40:59.357Z,4.07
2018-06-19T22:43:27.788Z,4.13
2018-06-19T22:45:56.144Z,3.87
2018-06-19T22:48:24.534Z,4.27
2018-06-19T22:50:52.946Z,3.90
2018-06-19T22:53:21.334Z,4.27
2018-06-19T22:55:49.819Z,4.40
2018-06-19T22:58:18.186Z,4.03
2018-06-19T23:00:46.577Z,3.93
2018-06-19T23:03:14.951Z,4.50
2018-06-19T23:05:43.296Z,4.83
2018-06-19T23:08:11.693Z,4.10
2018-06-19T23:10:40.075Z,4.10
2018-06-19T23:13:08.477Z,4.17
2018-06-19T23:15:36.930Z,4.23
2018-06-19T23:18:05.327Z,4.27
2018-06-19T23:20:33.692Z,4.43
2018-06-19T23:23:02.067Z,4.23
2018-06-19T23:25:30.524Z,4.50
2018-06-19T23:27:58.967Z,4.43
2018-06-19T23:30:27.334Z,4.33
2018-06-19T23:32:55.786Z,4.40
2018-06-19T23:35:24.192Z,4.43
2018-06-19T23:37:52.635Z,4.53
2018-06-19T23:40:21.088Z,4.73
2018-06-19T23:42:49.417Z,4.80
2018-06-19T23:45:17.851Z,4.40
2018-06-19T23:47:46.179Z,4.80
2018-06-19T23:50:14.623Z,4.37
2018-06-19T23:52:43.149Z,4.10
2018-06-19T23:55:11.519Z,4.30
2018-06-19T23:57:39.887Z,4.77
